Time;durP1;ratioP1;P1;durP2;ratioP2;P2;SDS_P1;SDS_P2;PMS_P1;PMS_P2;Temp;Humidity;BMP_temperature;BMP_pressure;BME280_temperature;BME280_humidity;BME280_pressure;Samples;Min_cycle;Max_cycle;Signal;HPM_P1;HPM_P2
2022/02/24 00:00:32;;;;;;;13.50;4.88;;;8.30;56.80;;;;;;4975129;28;20390;-64
2022/02/24 00:02:57;;;;;;;14.00;5.13;;;8.30;57.10;;;;;;4992124;28;20060;-65
2022/02/24 00:05:23;;;;;;;14.68;5.35;;;8.20;57.30;;;;;;4992779;28;20469;-64
2022/02/24 00:07:49;;;;;;;13.55;4.28;;;8.20;57.40;;;;;;4991862;28;20444;-64
2022/02/24 00:10:17;;;;;;;17.17;4.68;;;8.20;57.40;;;;;;4974670;28;20030;-64
2022/02/24 00:12:43;;;;;;;12.98;4.88;;;8.20;57.40;;;;;;4991293;28;20089;-64
2022/02/24 00:15:09;;;;;;;14.80;5.78;;;8.20;57.60;;;;;;4992207;28;20030;-65
2022/02/24 00:17:36;;;;;;;14.32;5.68;;;8.10;57.80;;;;;;4974840;28;20058;-65
2022/02/24 00:20:03;;;;;;;12.60;5.35;;;8.10;58.00;;;;;;4974835;28;20030;-65
2022/02/24 00:22:31;;;;;;;13.18;6.00;;;8.00;58.00;;;;;;4991848;28;20473;-65
2022/02/24 00:24:57;;;;;;;17.35;6.25;;;8.00;58.10;;;;;;4974133;28;20026;-66
2022/02/24 00:27:23;;;;;;;11.30;5.38;;;8.00;58.20;;;;;;4991836;28;20473;-66
2022/02/24 00:29:48;;;;;;;16.20;6.10;;;8.00;58.40;;;;;;4991418;28;20497;-66
2022/02/24 00:32:14;;;;;;;16.58;6.60;;;7.90;58.50;;;;;;4956187;28;20406;-65
2022/02/24 00:34:40;;;;;;;22.58;7.88;;;7.90;58.90;;;;;;4952976;28;20058;-65
2022/02/24 00:37:05;;;;;;;24.15;8.57;;;7.80;59.00;;;;;;4951964;29;20365;-65
2022/02/24 00:39:31;;;;;;;21.70;7.70;;;7.70;59.60;;;;;;4953116;28;20085;-65
2022/02/24 00:41:57;;;;;;;17.83;6.57;;;7.60;59.40;;;;;;4952987;28;20622;-65
2022/02/24 00:44:24;;;;;;;23.92;8.57;;;7.50;59.70;;;;;;4953110;28;20419;-65
2022/02/24 00:46:50;;;;;;;16.23;5.10;;;7.40;60.20;;;;;;4967182;28;20475;-64
2022/02/24 00:49:16;;;;;;;13.30;5.32;;;7.30;60.00;;;;;;4953240;28;20107;-64
2022/02/24 00:51:41;;;;;;;11.77;4.47;;;7.30;60.00;;;;;;4951512;29;20465;-65
2022/02/24 00:54:08;;;;;;;12.23;4.40;;;7.30;60.30;;;;;;4952991;28;20460;-64
2022/02/24 00:56:33;;;;;;;11.10;4.70;;;7.20;60.60;;;;;;4953142;28;20514;-64
2022/02/24 00:58:59;;;;;;;14.15;4.78;;;7.10;61.40;;;;;;4953037;28;20118;-64
2022/02/24 01:01:25;;;;;;;12.32;4.55;;;7.00;60.90;;;;;;4952827;28;20030;-64
2022/02/24 01:03:51;;;;;;;13.90;4.43;;;7.00;61.00;;;;;;4952526;28;20054;-65
2022/02/24 01:06:17;;;;;;;19.73;5.03;;;7.00;61.20;;;;;;4952985;28;20027;-65
2022/02/24 01:08:43;;;;;;;11.05;4.57;;;7.00;61.20;;;;;;4952625;28;20043;-65
2022/02/24 01:11:09;;;;;;;13.95;4.97;;;6.90;61.30;;;;;;4952636;28;20358;-65
2022/02/24 01:13:35;;;;;;;16.70;5.45;;;6.90;61.50;;;;;;4952924;28;20030;-64
2022/02/24 01:16:01;;;;;;;12.48;4.97;;;6.80;61.80;;;;;;4952304;28;20399;-66
2022/02/24 01:18:29;;;;;;;15.90;5.13;;;6.80;61.80;;;;;;4952684;29;20490;-64
2022/02/24 01:20:55;;;;;;;14.80;4.78;;;6.80;61.80;;;;;;4951109;29;20405;-64
2022/02/24 01:23:22;;;;;;;12.90;4.82;;;6.80;61.60;;;;;;4952630;28;20039;-64
2022/02/24 01:25:47;;;;;;;14.77;4.95;;;6.90;61.40;;;;;;4953633;29;20467;-64
2022/02/24 01:28:13;;;;;;;13.30;4.63;;;6.90;61.30;;;;;;4956055;28;20039;-64
2022/02/24 01:30:39;;;;;;;12.65;4.50;;;6.90;61.30;;;;;;4959506;28;20142;-66
2022/02/24 01:33:05;;;;;;;11.70;4.57;;;6.90;61.20;;;;;;4977311;28;20041;-65
2022/02/24 01:35:30;;;;;;;13.02;4.65;;;6.90;61.00;;;;;;4995426;28;20034;-65
2022/02/24 01:37:56;;;;;;;12.45;4.60;;;7.00;60.90;;;;;;4977119;28;20108;-65
2022/02/24 01:40:22;;;;;;;12.27;3.97;;;7.00;60.80;;;;;;4977343;28;20030;-64
2022/02/24 01:42:48;;;;;;;14.07;4.90;;;7.10;60.60;;;;;;4976835;28;20118;-64
2022/02/24 01:45:14;;;;;;;11.65;4.63;;;7.10;60.50;;;;;;4994525;28;20030;-65
2022/02/24 01:47:59;;;;;;;12.20;4.20;;;7.10;60.50;;;;;;4994601;28;20034;-64
2022/02/24 01:50:28;;;;;;;13.45;4.95;;;7.10;60.50;;;;;;4977184;28;20030;-64
2022/02/24 01:52:54;;;;;;;10.52;4.35;;;7.10;60.40;;;;;;4993009;28;20027;-64
2022/02/24 01:55:21;;;;;;;11.00;4.20;;;7.10;60.40;;;;;;4994160;28;20026;-64
2022/02/24 01:57:48;;;;;;;13.48;4.72;;;7.00;60.60;;;;;;4994306;28;20038;-66
2022/02/24 02:00:16;;;;;;;12.10;4.53;;;7.00;60.70;;;;;;4994478;28;20022;-66
2022/02/24 02:02:42;;;;;;;12.02;4.78;;;7.00;60.80;;;;;;4992115;28;20112;-71
2022/02/24 02:05:08;;;;;;;19.85;5.00;;;7.00;60.80;;;;;;4993859;28;20057;-66
2022/02/24 02:07:34;;;;;;;13.85;5.40;;;6.90;61.00;;;;;;4994006;28;20116;-65
2022/02/24 02:10:00;;;;;;;15.55;4.93;;;6.90;61.20;;;;;;4994102;28;20026;-69
2022/02/24 02:12:26;;;;;;;17.23;5.82;;;6.80;61.20;;;;;;4994772;28;20442;-65
2022/02/24 02:14:52;;;;;;;15.52;5.57;;;6.80;61.40;;;;;;4976637;28;20121;-65
2022/02/24 02:17:18;;;;;;;17.40;5.75;;;6.70;61.50;;;;;;4977113;28;20034;-65
2022/02/24 02:19:44;;;;;;;13.52;4.90;;;6.70;61.40;;;;;;4993877;28;20029;-65
2022/02/24 02:22:10;;;;;;;14.68;5.28;;;6.70;61.50;;;;;;4993546;28;20022;-65
2022/02/24 02:24:36;;;;;;;12.07;5.35;;;6.80;61.50;;;;;;4992980;28;20088;-65
2022/02/24 02:27:02;;;;;;;11.93;4.82;;;6.80;61.40;;;;;;4994125;28;20039;-65
2022/02/24 02:29:28;;;;;;;11.98;5.85;;;6.80;61.30;;;;;;4993959;28;20030;-65
2022/02/24 02:31:54;;;;;;;13.18;5.68;;;6.70;61.30;;;;;;4975763;28;20569;-65
2022/02/24 02:34:20;;;;;;;13.40;4.95;;;6.60;61.50;;;;;;4993728;28;20430;-65
2022/02/24 02:36:47;;;;;;;12.95;5.07;;;6.60;61.20;;;;;;4993278;28;20030;-65
2022/02/24 02:39:15;;;;;;;12.32;4.38;;;6.60;60.80;;;;;;4993882;28;20026;-66
2022/02/24 02:41:44;;;;;;;11.65;4.50;;;6.60;60.40;;;;;;4975933;28;20592;-65
2022/02/24 02:44:11;;;;;;;11.85;4.50;;;6.50;60.10;;;;;;4993109;28;20034;-65
2022/02/24 02:46:37;;;;;;;13.23;5.03;;;6.50;59.90;;;;;;4993048;28;20026;-65
2022/02/24 02:49:03;;;;;;;12.32;4.65;;;6.60;59.90;;;;;;4993484;28;20030;-66
2022/02/24 02:51:29;;;;;;;11.63;4.40;;;6.60;59.70;;;;;;4976466;28;20410;-64
2022/02/24 02:53:55;;;;;;;12.02;3.97;;;6.60;59.40;;;;;;4975620;28;20057;-65
2022/02/24 02:56:21;;;;;;;12.05;3.97;;;6.70;59.10;;;;;;4993386;28;20100;-65
2022/02/24 02:58:46;;;;;;;9.65;4.05;;;6.60;59.10;;;;;;4993372;28;20030;-65
2022/02/24 03:01:12;;;;;;;10.32;3.83;;;6.50;58.80;;;;;;4976004;28;20422;-64
2022/02/24 03:03:38;;;;;;;10.13;3.58;;;6.50;58.10;;;;;;4975374;28;20027;-64
2022/02/24 03:06:04;;;;;;;12.38;4.05;;;6.60;58.40;;;;;;4975855;28;20025;-65
2022/02/24 03:08:29;;;;;;;10.18;3.28;;;6.60;58.30;;;;;;4992864;28;20482;-64
2022/02/24 03:10:55;;;;;;;9.90;3.38;;;6.70;57.80;;;;;;4975232;28;20034;-64
2022/02/24 03:13:21;;;;;;;8.02;3.72;;;6.70;57.50;;;;;;4993066;28;20134;-64
2022/02/24 03:15:47;;;;;;;9.20;3.40;;;6.70;56.90;;;;;;4992511;28;20069;-66
2022/02/24 03:18:13;;;;;;;8.02;2.70;;;6.70;57.20;;;;;;4992965;28;20026;-64
2022/02/24 03:20:39;;;;;;;7.97;2.83;;;6.70;56.80;;;;;;4992041;28;20125;-66
2022/02/24 03:23:07;;;;;;;7.07;2.45;;;6.70;56.50;;;;;;4975248;28;20105;-65
2022/02/24 03:25:34;;;;;;;7.63;2.47;;;6.80;56.30;;;;;;4992906;28;20073;-64
2022/02/24 03:28:00;;;;;;;7.43;2.40;;;6.80;56.20;;;;;;4992123;28;20065;-71
2022/02/24 03:30:27;;;;;;;8.65;2.47;;;6.80;55.70;;;;;;4992504;28;20065;-62
2022/02/24 03:32:53;;;;;;;8.55;2.58;;;6.90;55.60;;;;;;4992138;28;20037;-63
2022/02/24 03:35:19;;;;;;;7.40;2.60;;;6.90;55.50;;;;;;4975356;28;20026;-63
2022/02/24 03:37:46;;;;;;;9.95;2.38;;;6.80;55.40;;;;;;4991811;28;20037;-63
2022/02/24 03:40:12;;;;;;;12.60;3.08;;;6.90;55.50;;;;;;4975010;28;20034;-65
2022/02/24 03:42:39;;;;;;;8.55;2.88;;;6.80;55.50;;;;;;4992241;28;20042;-64
2022/02/24 03:45:05;;;;;;;9.70;2.75;;;6.90;55.90;;;;;;4992401;28;20022;-64
2022/02/24 03:47:31;;;;;;;7.95;3.15;;;6.80;56.20;;;;;;4991660;28;20366;-64
2022/02/24 03:49:57;;;;;;;12.07;3.72;;;6.80;56.20;;;;;;4991990;28;20033;-64
2022/02/24 03:52:23;;;;;;;12.35;3.65;;;6.80;56.50;;;;;;4992260;28;20436;-63
2022/02/24 03:54:50;;;;;;;10.25;3.22;;;6.80;56.60;;;;;;4992077;28;20034;-64
2022/02/24 03:57:16;;;;;;;10.25;3.30;;;6.80;56.40;;;;;;4992271;28;20040;-64
2022/02/24 03:59:42;;;;;;;11.27;3.50;;;6.70;56.40;;;;;;4991966;28;20030;-64
2022/02/24 04:02:08;;;;;;;9.82;3.03;;;6.80;56.50;;;;;;4992081;28;20042;-64
2022/02/24 04:04:35;;;;;;;8.13;3.25;;;6.80;56.40;;;;;;4992103;28;20097;-64
2022/02/24 04:07:01;;;;;;;8.05;3.17;;;6.80;56.10;;;;;;4991727;28;20045;-65
2022/02/24 04:09:28;;;;;;;10.25;3.33;;;6.80;56.00;;;;;;4992113;28;20432;-64
2022/02/24 04:11:54;;;;;;;8.70;3.03;;;6.70;55.80;;;;;;4974189;28;20022;-65
2022/02/24 04:14:20;;;;;;;8.43;3.38;;;6.70;55.60;;;;;;4974428;28;20374;-64
2022/02/24 04:16:45;;;;;;;8.48;2.85;;;6.70;55.50;;;;;;4991629;28;20030;-64
2022/02/24 04:19:11;;;;;;;10.63;3.03;;;6.70;55.50;;;;;;4991998;28;20040;-64
2022/02/24 04:21:37;;;;;;;8.55;3.15;;;6.60;55.50;;;;;;4992216;28;20102;-65
2022/02/24 04:24:03;;;;;;;9.23;3.10;;;6.60;55.40;;;;;;4973917;28;20030;-64
2022/02/24 04:26:29;;;;;;;6.47;3.10;;;6.60;55.50;;;;;;4992234;28;20030;-64
2022/02/24 04:28:55;;;;;;;8.10;3.00;;;6.50;55.50;;;;;;4991345;28;20042;-64
2022/02/24 04:31:23;;;;;;;9.30;3.00;;;6.50;55.50;;;;;;4991813;28;20046;-64
2022/02/24 04:33:49;;;;;;;10.23;3.53;;;6.50;55.60;;;;;;4991495;28;20045;-64
2022/02/24 04:36:15;;;;;;;8.65;2.78;;;6.40;55.60;;;;;;4992296;28;20027;-64
2022/02/24 04:38:41;;;;;;;12.30;3.28;;;6.40;55.70;;;;;;4991443;28;20038;-65
2022/02/24 04:41:08;;;;;;;12.70;3.08;;;6.40;55.80;;;;;;4958597;28;20464;-65
2022/02/24 04:43:33;;;;;;;6.25;2.83;;;6.40;55.70;;;;;;4974320;28;20062;-64
2022/02/24 04:46:00;;;;;;;9.05;2.70;;;6.40;55.60;;;;;;4974096;28;20465;-64
2022/02/24 04:48:26;;;;;;;6.22;2.67;;;6.40;55.60;;;;;;4992056;28;20104;-64
2022/02/24 04:50:51;;;;;;;8.73;3.55;;;6.40;55.60;;;;;;4991120;28;20114;-64
2022/02/24 04:53:17;;;;;;;10.50;2.53;;;6.40;55.50;;;;;;4991716;28;20124;-64
2022/02/24 04:55:43;;;;;;;8.45;2.70;;;6.40;55.50;;;;;;4973876;28;20528;-64
2022/02/24 04:58:09;;;;;;;8.23;2.65;;;6.40;55.40;;;;;;4974485;28;20074;-62
2022/02/24 05:00:35;;;;;;;11.27;2.70;;;6.30;55.50;;;;;;4978013;28;20466;-64
2022/02/24 05:03:01;;;;;;;6.57;2.67;;;6.30;55.40;;;;;;4995081;28;20022;-64
2022/02/24 05:05:26;;;;;;;9.95;2.92;;;6.30;55.20;;;;;;4995304;28;20105;-64
2022/02/24 05:07:52;;;;;;;5.88;2.40;;;6.30;55.10;;;;;;4994752;28;20297;-63
2022/02/24 05:10:18;;;;;;;5.82;2.00;;;6.30;55.10;;;;;;4978431;28;20026;-64
2022/02/24 05:12:44;;;;;;;7.32;2.60;;;6.30;54.80;;;;;;4994584;28;20436;-65
2022/02/24 05:15:10;;;;;;;7.82;2.28;;;6.30;54.80;;;;;;4977836;28;20027;-64
2022/02/24 05:17:39;;;;;;;9.27;2.45;;;6.20;54.70;;;;;;4977827;28;20030;-64
2022/02/24 05:20:07;;;;;;;7.70;2.50;;;6.20;54.60;;;;;;4977242;28;20109;-64
2022/02/24 05:22:32;;;;;;;6.88;2.28;;;6.20;54.60;;;;;;4994845;28;20033;-64
2022/02/24 05:24:58;;;;;;;8.70;2.90;;;6.20;54.70;;;;;;4994141;28;20030;-65
2022/02/24 05:27:24;;;;;;;6.75;2.33;;;6.20;54.70;;;;;;4995261;28;20064;-64
2022/02/24 05:29:50;;;;;;;7.82;2.65;;;6.20;54.70;;;;;;4994329;28;20460;-65
2022/02/24 05:32:15;;;;;;;4.43;2.22;;;6.20;54.60;;;;;;4977269;28;20077;-65
2022/02/24 05:34:41;;;;;;;8.10;2.78;;;6.20;54.40;;;;;;4977464;28;20030;-66
2022/02/24 05:37:07;;;;;;;11.68;2.72;;;6.20;54.50;;;;;;4976743;28;20026;-66
2022/02/24 05:39:33;;;;;;;7.47;2.70;;;6.20;54.40;;;;;;4994580;28;20105;-65
2022/02/24 05:41:59;;;;;;;10.27;2.92;;;6.30;54.60;;;;;;4977070;28;20409;-65
2022/02/24 05:44:25;;;;;;;7.57;2.88;;;6.20;54.50;;;;;;4994917;28;20117;-65
2022/02/24 05:46:51;;;;;;;10.40;3.08;;;6.30;54.50;;;;;;4976845;28;20037;-65
2022/02/24 05:49:17;;;;;;;7.57;2.47;;;6.30;54.40;;;;;;4994887;28;20039;-65
2022/02/24 05:51:44;;;;;;;10.65;2.80;;;6.30;54.40;;;;;;4994879;28;20030;-65
2022/02/24 05:54:10;;;;;;;6.97;2.60;;;6.30;54.40;;;;;;4959392;28;20033;-64
2022/02/24 05:56:37;;;;;;;9.18;2.58;;;6.30;54.30;;;;;;4993805;28;20105;-64
2022/02/24 05:59:02;;;;;;;8.20;2.58;;;6.40;54.20;;;;;;4993493;28;20114;-65
2022/02/24 06:01:28;;;;;;;7.28;2.33;;;6.40;54.20;;;;;;4975393;28;20424;-63
2022/02/24 06:03:54;;;;;;;9.43;2.70;;;6.50;54.20;;;;;;4994441;28;20033;-63
2022/02/24 06:06:19;;;;;;;8.02;3.42;;;6.50;54.10;;;;;;4994981;28;20347;-64
2022/02/24 06:08:45;;;;;;;6.68;2.80;;;6.50;53.90;;;;;;4976676;28;20169;-64
2022/02/24 06:11:12;;;;;;;6.43;2.47;;;6.60;53.90;;;;;;4993066;28;20030;-64
2022/02/24 06:13:38;;;;;;;11.43;3.15;;;6.60;53.90;;;;;;4993680;28;20022;-70
2022/02/24 06:16:04;;;;;;;8.07;2.47;;;6.70;53.90;;;;;;4992786;28;20031;-64
2022/02/24 06:18:30;;;;;;;9.75;3.00;;;6.60;53.70;;;;;;4976446;28;20456;-64
2022/02/24 06:20:57;;;;;;;11.18;3.78;;;6.70;53.80;;;;;;4993618;28;20101;-62
2022/02/24 06:23:23;;;;;;;7.85;2.88;;;6.70;53.90;;;;;;4993858;28;20034;-62
2022/02/24 06:25:49;;;;;;;7.63;3.13;;;6.70;53.90;;;;;;4992447;28;20034;-63
2022/02/24 06:28:15;;;;;;;12.20;2.80;;;6.70;53.90;;;;;;4976353;28;20536;-61
2022/02/24 06:30:41;;;;;;;6.05;2.50;;;6.70;54.00;;;;;;4975427;28;20057;-61
2022/02/24 06:33:09;;;;;;;10.27;3.78;;;6.80;54.20;;;;;;4993024;28;20477;-61
2022/02/24 06:35:35;;;;;;;8.73;2.95;;;6.80;54.30;;;;;;4992893;28;20026;-61
2022/02/24 06:38:02;;;;;;;11.63;2.92;;;6.80;54.40;;;;;;4992958;28;20073;-61
2022/02/24 06:40:29;;;;;;;7.25;3.17;;;6.80;54.40;;;;;;4993706;28;20023;-61
2022/02/24 06:42:56;;;;;;;8.73;3.35;;;6.90;54.40;;;;;;4993113;28;20138;-62
2022/02/24 06:45:22;;;;;;;15.38;3.40;;;6.90;54.30;;;;;;4975796;28;20038;-62
2022/02/24 06:47:49;;;;;;;13.57;3.40;;;6.90;54.40;;;;;;4993227;28;20062;-71
2022/02/24 06:50:17;;;;;;;11.07;4.28;;;6.90;54.40;;;;;;4976178;28;20027;-62
2022/02/24 06:52:43;;;;;;;9.07;3.47;;;6.90;54.40;;;;;;4975914;28;20478;-62
2022/02/24 06:55:10;;;;;;;10.52;3.50;;;6.90;54.40;;;;;;4959401;28;20250;-62
2022/02/24 06:57:44;;;;;;;12.25;3.13;;;7.00;55.20;;;;;;4993122;28;20093;-70
2022/02/24 07:00:10;;;;;;;15.35;3.85;;;7.10;54.60;;;;;;4992712;28;20026;-61
2022/02/24 07:02:36;;;;;;;14.50;3.85;;;7.10;54.40;;;;;;4993427;28;20480;-61
2022/02/24 07:05:04;;;;;;;9.40;3.65;;;7.20;54.30;;;;;;4975178;28;20030;-61
2022/02/24 07:07:32;;;;;;;11.13;4.05;;;7.30;54.40;;;;;;4992980;28;20035;-62
2022/02/24 07:09:58;;;;;;;12.70;4.32;;;7.30;54.30;;;;;;4993267;28;20106;-63
2022/02/24 07:12:25;;;;;;;12.20;3.88;;;7.40;54.50;;;;;;4975481;28;20057;-61
2022/02/24 07:14:51;;;;;;;12.75;3.78;;;7.50;54.50;;;;;;4975690;28;20057;-71
2022/02/24 07:17:16;;;;;;;7.65;3.72;;;7.50;54.30;;;;;;4992965;28;20026;-61
2022/02/24 07:19:42;;;;;;;8.82;3.90;;;7.60;54.40;;;;;;4992133;28;20029;-69
2022/02/24 07:22:08;;;;;;;6.57;4.30;;;7.70;54.50;;;;;;4974535;28;20031;-62
2022/02/24 07:24:34;;;;;;;9.65;4.25;;;7.80;54.40;;;;;;4993254;28;20076;-60
2022/02/24 07:27:00;;;;;;;11.07;4.80;;;7.90;54.50;;;;;;4991796;28;20417;-60
2022/02/24 07:29:25;;;;;;;10.75;4.50;;;8.00;54.50;;;;;;4992434;28;20096;-61
2022/02/24 07:31:52;;;;;;;11.45;5.70;;;8.00;54.30;;;;;;4992456;28;20458;-62
2022/02/24 07:34:18;;;;;;;20.95;7.30;;;8.50;55.60;;;;;;4992588;28;20053;-61
2022/02/24 07:36:44;;;;;;;15.60;8.60;;;11.80;53.70;;;;;;4992584;28;20449;-60
2022/02/24 07:39:11;;;;;;;11.40;8.15;;;15.40;47.70;;;;;;4974169;28;20480;-63
2022/02/24 07:41:40;;;;;;;29.00;11.80;;;18.10;40.60;;;;;;4992299;28;20039;-61
2022/02/24 07:44:07;;;;;;;11.88;9.05;;;20.10;36.80;;;;;;4974193;28;20034;-61
2022/02/24 07:46:33;;;;;;;12.70;9.43;;;22.20;34.20;;;;;;4992525;28;20062;-61
2022/02/24 07:48:59;;;;;;;18.55;11.27;;;24.00;31.20;;;;;;4991564;28;20030;-64
2022/02/24 07:51:25;;;;;;;11.20;7.20;;;25.40;29.70;;;;;;4992064;28;20037;-61
2022/02/24 07:53:51;;;;;;;13.02;8.07;;;26.40;28.30;;;;;;4992616;28;20056;-62
2022/02/24 07:56:17;;;;;;;11.57;7.18;;;27.40;27.60;;;;;;4991578;28;20033;-61
2022/02/24 07:58:43;;;;;;;14.05;8.93;;;27.50;26.60;;;;;;4992268;28;20036;-61
2022/02/24 08:01:09;;;;;;;17.67;7.55;;;27.20;26.40;;;;;;4991577;28;20038;-62
2022/02/24 08:03:34;;;;;;;9.82;5.88;;;27.40;26.50;;;;;;4974753;28;20030;-67
2022/02/24 08:06:01;;;;;;;16.77;6.50;;;28.00;26.20;;;;;;4973974;28;20520;-62
2022/02/24 08:08:27;;;;;;;11.75;6.35;;;28.70;25.80;;;;;;4991877;28;20093;-61
2022/02/24 08:10:53;;;;;;;11.13;6.05;;;29.00;25.00;;;;;;4973851;28;20462;-61
2022/02/24 08:13:19;;;;;;;10.88;6.07;;;29.40;24.90;;;;;;4973792;28;20072;-62
2022/02/24 08:15:46;;;;;;;9.32;5.95;;;29.90;24.70;;;;;;4974331;28;20026;-60
2022/02/24 08:18:12;;;;;;;9.18;6.22;;;30.20;24.30;;;;;;4991646;28;20034;-60
2022/02/24 08:20:38;;;;;;;13.15;5.80;;;30.30;24.00;;;;;;4992344;28;20030;-59
2022/02/24 08:23:04;;;;;;;18.10;6.68;;;29.90;23.90;;;;;;4991041;28;20461;-60
2022/02/24 08:25:32;;;;;;;12.93;6.53;;;28.90;23.90;;;;;;4974024;28;20030;-61
2022/02/24 08:27:59;;;;;;;10.48;5.80;;;26.90;24.90;;;;;;4973500;28;20045;-61
2022/02/24 08:30:25;;;;;;;9.00;5.18;;;24.80;25.80;;;;;;4991686;28;20033;-59
2022/02/24 08:32:52;;;;;;;8.18;4.88;;;23.00;27.30;;;;;;4953341;28;20081;-60
2022/02/24 08:35:21;;;;;;;10.88;6.72;;;21.40;28.70;;;;;;4957702;28;20055;-60
2022/02/24 08:37:48;;;;;;;23.98;9.10;;;20.40;29.80;;;;;;4958526;28;20459;-59
2022/02/24 08:40:16;;;;;;;13.10;6.38;;;19.60;30.50;;;;;;4958802;28;20391;-59
2022/02/24 08:42:42;;;;;;;8.90;6.13;;;18.50;31.90;;;;;;4959790;28;20035;-59
2022/02/24 08:45:10;;;;;;;11.57;5.65;;;17.90;33.00;;;;;;4941528;29;20057;-60
2022/02/24 08:47:36;;;;;;;14.75;5.72;;;17.30;33.90;;;;;;4958254;29;20501;-62
2022/02/24 08:50:02;;;;;;;9.20;6.00;;;16.70;35.00;;;;;;4958359;28;20069;-60
2022/02/24 08:52:28;;;;;;;16.63;6.10;;;16.10;36.40;;;;;;4959503;28;20474;-59
2022/02/24 08:54:53;;;;;;;12.60;6.97;;;15.50;37.70;;;;;;4958335;29;20054;-62
2022/02/24 08:57:19;;;;;;;13.65;6.20;;;14.80;38.80;;;;;;4958979;28;20078;-60
2022/02/24 08:59:47;;;;;;;11.90;6.60;;;14.40;39.70;;;;;;4958925;28;20031;-59
2022/02/24 09:02:12;;;;;;;14.00;6.60;;;14.00;40.90;;;;;;4958721;28;20054;-61
2022/02/24 09:04:38;;;;;;;11.45;6.80;;;13.60;42.00;;;;;;4957593;29;20070;-60
2022/02/24 09:07:04;;;;;;;12.18;6.18;;;13.30;42.50;;;;;;4957752;29;20537;-61
2022/02/24 09:09:30;;;;;;;11.98;6.00;;;13.10;43.10;;;;;;4958324;29;20031;-60
2022/02/24 09:11:56;;;;;;;18.58;6.90;;;13.00;44.40;;;;;;4959013;28;20382;-61
2022/02/24 09:14:21;;;;;;;14.32;5.95;;;12.80;43.60;;;;;;4958808;28;20394;-60
2022/02/24 09:16:47;;;;;;;11.00;6.22;;;12.70;44.40;;;;;;4959364;28;20031;-60
2022/02/24 09:19:13;;;;;;;16.40;7.20;;;12.60;44.60;;;;;;4958863;28;20035;-60
2022/02/24 09:21:40;;;;;;;14.70;6.47;;;12.60;44.60;;;;;;4959486;28;20027;-60
2022/02/24 09:24:06;;;;;;;14.63;6.63;;;12.70;44.80;;;;;;4957783;28;20470;-61
2022/02/24 09:26:33;;;;;;;15.18;7.57;;;12.70;45.00;;;;;;4959730;28;20031;-60
2022/02/24 09:29:01;;;;;;;15.85;6.05;;;12.70;45.10;;;;;;4958829;28;20054;-69
2022/02/24 09:31:27;;;;;;;10.02;5.78;;;12.60;45.20;;;;;;4971014;28;20116;-60
2022/02/24 09:33:54;;;;;;;11.93;5.65;;;12.60;45.40;;;;;;4979764;28;20073;-66
2022/02/24 09:36:20;;;;;;;14.50;5.70;;;12.70;45.40;;;;;;4979720;28;20554;-63
2022/02/24 09:38:46;;;;;;;10.88;5.80;;;12.60;45.70;;;;;;4997775;28;20061;-64
2022/02/24 09:41:13;;;;;;;10.55;6.15;;;12.50;46.00;;;;;;4997463;28;20361;-65
2022/02/24 09:43:38;;;;;;;12.57;6.25;;;12.50;45.90;;;;;;4980150;28;20117;-64
2022/02/24 09:46:10;;;;;;;13.75;6.47;;;12.60;45.80;;;;;;4976266;28;20125;-65
2022/02/24 09:48:41;;;;;;;18.65;10.20;;;12.60;45.80;;;;;;4994607;28;20466;-75
2022/02/24 09:51:14;;;;;;;9.70;6.57;;;12.70;45.70;;;;;;4976891;28;20026;-74
2022/02/24 09:53:41;;;;;;;10.00;6.00;;;12.80;45.60;;;;;;4976876;28;20088;-76
2022/02/24 09:56:19;;;;;;;11.27;6.07;;;12.90;45.50;;;;;;4991056;28;20105;-70
2022/02/24 09:58:46;;;;;;;12.15;6.53;;;12.90;45.60;;;;;;4973021;28;20137;-70
2022/02/24 10:01:14;;;;;;;14.10;6.85;;;12.90;45.70;;;;;;4991227;28;20069;-70
2022/02/24 10:03:45;;;;;;;16.98;6.38;;;12.90;45.80;;;;;;4994210;28;20073;-72
2022/02/24 10:06:13;;;;;;;11.18;6.45;;;12.90;45.90;;;;;;4976852;28;20104;-70
2022/02/24 10:08:42;;;;;;;11.00;6.68;;;13.10;45.70;;;;;;4994377;28;20038;-67
2022/02/24 10:11:30;;;;;;;10.93;6.70;;;13.10;45.50;;;;;;4992980;28;20022;-67
2022/02/24 10:13:59;;;;;;;15.80;7.38;;;13.20;45.40;;;;;;4994129;28;20158;-68
2022/02/24 10:16:26;;;;;;;9.27;6.20;;;13.30;45.30;;;;;;4976025;28;20049;-68
2022/02/24 10:18:52;;;;;;;10.82;6.55;;;13.40;45.40;;;;;;4994486;28;20034;-69
2022/02/24 10:21:18;;;;;;;13.65;6.75;;;13.40;45.30;;;;;;4993396;28;20031;-67
2022/02/24 10:23:45;;;;;;;11.50;6.65;;;13.50;45.20;;;;;;4994401;28;20432;-68
2022/02/24 10:26:13;;;;;;;11.43;6.65;;;13.60;45.10;;;;;;4993147;28;20098;-67
2022/02/24 10:28:54;;;;;;;11.13;6.47;;;13.60;45.00;;;;;;4994218;28;20057;-66
2022/02/24 10:31:27;;;;;;;12.27;6.18;;;13.60;45.10;;;;;;4993324;28;20066;-68
2022/02/24 10:34:05;;;;;;;13.88;7.35;;;13.40;45.30;;;;;;4976498;28;20389;-72
2022/02/24 10:36:36;;;;;;;11.20;7.00;;;13.40;45.40;;;;;;4977394;28;20478;-69
2022/02/24 10:39:09;;;;;;;9.70;5.78;;;13.40;45.50;;;;;;4994834;28;20034;-71
2022/02/24 10:41:39;;;;;;;9.50;6.63;;;13.40;45.50;;;;;;4994475;28;20062;-69
2022/02/24 10:44:24;;;;;;;11.55;6.68;;;13.40;45.80;;;;;;4993991;28;20073;-72
2022/02/24 10:47:15;;;;;;;13.27;8.05;;;13.60;45.40;;;;;;4995200;28;20023;-71
2022/02/24 10:49:49;;;;;;;10.07;6.80;;;13.70;45.20;;;;;;4994402;28;20085;-71
2022/02/24 10:52:16;;;;;;;13.48;6.10;;;13.80;45.00;;;;;;4994491;28;20033;-70
2022/02/24 10:54:54;;;;;;;9.30;6.28;;;13.90;44.60;;;;;;4994513;28;20034;-72
2022/02/24 10:57:24;;;;;;;12.75;6.07;;;13.90;44.60;;;;;;4994106;28;20407;-67
2022/02/24 10:59:54;;;;;;;15.68;6.68;;;14.00;44.50;;;;;;4993711;28;20140;-74
2022/02/24 11:02:22;;;;;;;9.48;6.10;;;14.10;44.10;;;;;;4993283;28;20033;-71
2022/02/24 11:04:49;;;;;;;10.57;6.07;;;14.10;44.20;;;;;;4993731;28;20027;-75
2022/02/24 11:07:16;;;;;;;9.60;6.03;;;14.30;44.10;;;;;;4976144;28;20034;-73
2022/02/24 11:09:44;;;;;;;11.95;5.80;;;14.40;43.90;;;;;;4994021;28;20034;-73
2022/02/24 11:12:13;;;;;;;10.55;6.07;;;14.50;43.70;;;;;;4976567;28;20488;-71
2022/02/24 11:14:40;;;;;;;13.60;6.32;;;14.50;43.50;;;;;;4993323;28;20026;-71
2022/02/24 11:17:11;;;;;;;15.90;6.47;;;14.60;43.40;;;;;;4993200;28;20496;-75
2022/02/24 11:19:38;;;;;;;8.90;5.43;;;14.80;43.10;;;;;;4993624;28;20022;-72
2022/02/24 11:22:07;;;;;;;11.52;6.47;;;14.90;42.70;;;;;;4994026;28;20037;-73
2022/02/24 11:24:34;;;;;;;11.45;5.22;;;14.90;42.50;;;;;;4994039;28;20032;-72
2022/02/24 11:27:15;;;;;;;9.98;5.20;;;14.80;42.50;;;;;;4994400;28;20026;-74
2022/02/24 11:30:04;;;;;;;9.50;5.65;;;14.70;42.80;;;;;;4993386;28;20728;-74
2022/02/24 11:32:31;;;;;;;10.38;5.50;;;14.80;43.10;;;;;;4962300;28;20047;-72
2022/02/24 11:35:15;;;;;;;9.77;6.20;;;14.90;43.20;;;;;;4955254;28;20046;-72
2022/02/24 11:38:03;;;;;;;11.05;6.13;;;15.00;42.90;;;;;;4953958;29;20027;-69
2022/02/24 11:40:36;;;;;;;15.02;6.43;;;14.90;42.90;;;;;;4952631;29;20508;-70
2022/02/24 11:43:10;;;;;;;11.60;5.43;;;14.90;42.60;;;;;;4954533;28;20039;-69
2022/02/24 11:45:37;;;;;;;12.85;5.93;;;15.00;42.40;;;;;;4954229;28;20031;-72
2022/02/24 11:48:07;;;;;;;8.93;5.78;;;15.00;42.60;;;;;;4952087;29;20505;-72
2022/02/24 11:50:44;;;;;;;9.05;5.30;;;15.00;42.30;;;;;;4953469;29;20059;-70
2022/02/24 11:53:26;;;;;;;11.25;5.80;;;15.00;42.10;;;;;;4954000;28;20055;-69
2022/02/24 11:55:56;;;;;;;9.07;5.40;;;15.00;42.10;;;;;;4954139;28;20028;-66
2022/02/24 11:58:46;;;;;;;8.85;5.32;;;15.10;41.90;;;;;;4968526;28;20035;-67
2022/02/24 12:01:12;;;;;;;10.70;5.30;;;15.10;42.10;;;;;;4953812;28;20035;-68
2022/02/24 12:03:44;;;;;;;14.35;5.82;;;15.00;42.10;;;;;;4953940;28;20387;-69
2022/02/24 12:06:18;;;;;;;9.43;5.32;;;15.00;42.40;;;;;;4953206;28;20038;-73
2022/02/24 12:09:08;;;;;;;10.75;5.55;;;15.20;41.90;;;;;;4951742;28;20035;-68
2022/02/24 12:12:01;;;;;;;9.00;5.35;;;15.20;41.90;;;;;;4954329;28;20058;-74
2022/02/24 12:14:47;;;;;;;10.10;5.93;;;15.70;41.40;;;;;;4932214;29;20164;-72
2022/02/24 12:17:22;;;;;;;7.82;5.25;;;16.40;40.40;;;;;;4893250;29;20060;-71
2022/02/24 12:20:10;;;;;;;18.67;7.00;;;16.80;38.30;;;;;;4894284;29;20041;-67
2022/02/24 12:22:44;;;;;;;9.80;5.18;;;16.60;38.70;;;;;;4894532;29;20036;-64
2022/02/24 12:25:14;;;;;;;12.95;5.93;;;16.40;39.10;;;;;;4893893;29;20037;-69
2022/02/24 12:28:01;;;;;;;9.30;5.53;;;16.10;39.40;;;;;;4893880;29;20071;-69
2022/02/24 12:30:32;;;;;;;11.55;6.68;;;16.10;39.50;;;;;;4878563;29;20032;-68
2022/02/24 12:33:02;;;;;;;12.93;5.95;;;16.20;39.60;;;;;;4893834;29;20053;-67
2022/02/24 12:35:32;;;;;;;9.73;5.28;;;16.10;39.20;;;;;;4893950;29;20041;-65
2022/02/24 12:37:59;;;;;;;6.95;4.63;;;16.00;39.20;;;;;;4894581;29;20136;-65
2022/02/24 12:40:33;;;;;;;8.82;4.28;;;16.00;39.30;;;;;;4893843;29;20057;-65
2022/02/24 12:43:00;;;;;;;13.25;5.25;;;16.00;39.30;;;;;;4894415;29;20029;-66
2022/02/24 12:45:46;;;;;;;11.35;4.85;;;16.00;40.20;;;;;;4893852;29;20473;-66
2022/02/24 12:48:13;;;;;;;10.98;4.35;;;16.00;39.20;;;;;;4893288;29;20053;-64